首页
METAR-TAF:

METAR-TAF

机场 :

雅典, 喬治亞, 美国

纬度: 33-57-03N, 经度: 083-19-41W, 海拔: 246米

当前天气观测

该预报发布于58分钟前的20:51 UTC
温度 34°C
湿度 30%
气压 1018 hPa
能見度: 16.1公里
天空无云

METAR: KAHN 182051Z 10SM CLR 34/14 A3005 RMK AO2 SLP168 T03440144 56012

时间: 17:49 (21:49 UTC)

预报

该预报发布于4小时和7分钟前的17:42 UTC
预报有效从18日的 18点(UTC)到 19日的 18点(UTC)
风速5节,风向
能見度: 10公里
少量云层高于6000英尺
散云层高于25000英尺
从 19日的 0600点(UTC)
风速4节,风向西转西南
能見度: 10公里
散云层高于25000英尺
从 19日的 1400点(UTC)
风速7节,风向西转西南
能見度: 10公里
散云层高于5000英尺
多云层高于25000英尺
从 19日的 1700点(UTC)
风速9节,风向西南
能見度: 10公里
散云层高于2500英尺
多云层高于6000英尺
附近有阵雨

TAF: KAHN 181742Z 1818/1918 19005KT P6SM FEW060 SCT250 FM190600 24004KT P6SM SCT250 FM191400 24007KT P6SM SCT050 BKN250 FM191700 23009KT P6SM VCSH SCT025 BKN060

超过4000个机场的气象观测和天气预报(METAR&TAF报告)。

可查询的气象台以黄色和红色小点在地图上表示。

将鼠标移到小点上方,可查看气象台名称。

然后点击查看天气观测和预报。

如需切换地图:点击带黑十字的绿色按钮放大地图;点击带横线的绿色按钮缩小地图;或者点击绿色箭头查看邻近地区的地图。


METAR-TAF: